createdAt,value
2018-03-03T00:00:20.210Z,32.08
2018-03-03T00:02:47.749Z,40.60
2018-03-03T00:05:15.321Z,44.67
2018-03-03T00:07:42.854Z,44.78
2018-03-03T00:10:11.251Z,48.85
2018-03-03T00:12:40.511Z,35.00
2018-03-03T00:15:08.106Z,33.85
2018-03-03T00:17:36.077Z,37.75
2018-03-03T00:20:03.942Z,33.22
2018-03-03T00:22:41.397Z,37.17
2018-03-03T00:25:09.003Z,34.17
2018-03-03T00:27:36.518Z,42.70
2018-03-03T00:30:04.037Z,40.20
2018-03-03T00:32:31.580Z,37.95
2018-03-03T00:34:59.144Z,33.72
2018-03-03T00:37:27.175Z,37.33
2018-03-03T00:39:54.714Z,40.80
2018-03-03T00:42:22.707Z,41.83
2018-03-03T00:44:50.303Z,35.08
2018-03-03T00:47:17.872Z,40.58
2018-03-03T00:49:45.400Z,42.70
2018-03-03T00:52:13.935Z,34.20
2018-03-03T00:54:41.447Z,41.95
2018-03-03T00:57:09.723Z,33.08
2018-03-03T00:59:38.000Z,32.53
2018-03-03T01:02:06.291Z,36.90
2018-03-03T01:04:34.722Z,45.28
2018-03-03T01:07:02.252Z,40.80
2018-03-03T01:09:29.771Z,35.25
2018-03-03T01:11:57.302Z,36.58
2018-03-03T01:14:24.816Z,30.88
2018-03-03T01:16:52.465Z,52.03
2018-03-03T01:19:20.742Z,38.95
2018-03-03T01:21:49.222Z,37.80
2018-03-03T01:24:17.509Z,38.38
2018-03-03T01:26:45.779Z,43.67
2018-03-03T01:29:14.065Z,34.22
2018-03-03T01:31:41.578Z,48.00
2018-03-03T01:34:09.103Z,44.38
2018-03-03T01:36:36.638Z,35.25
2018-03-03T01:39:04.169Z,50.60
2018-03-03T01:41:31.695Z,43.83
2018-03-03T01:43:59.240Z,45.85
2018-03-03T01:46:26.871Z,45.47
2018-03-03T01:48:55.259Z,36.45
2018-03-03T01:51:34.726Z,44.60
2018-03-03T01:54:02.247Z,33.83
2018-03-03T01:56:30.659Z,42.30
2018-03-03T01:58:58.176Z,43.17
2018-03-03T02:01:25.727Z,37.63
2018-03-03T02:03:53.407Z,40.20
2018-03-03T02:06:21.721Z,52.17
2018-03-03T02:08:49.239Z,38.53
2018-03-03T02:11:18.496Z,43.35
2018-03-03T02:13:46.013Z,44.63
2018-03-03T02:16:14.515Z,44.20
2018-03-03T02:18:42.023Z,39.58
2018-03-03T02:21:09.582Z,37.78
2018-03-03T02:23:37.169Z,34.10
2018-03-03T02:26:10.032Z,37.85
2018-03-03T02:28:37.843Z,46.70
2018-03-03T02:31:05.468Z,37.25
2018-03-03T02:33:33.000Z,45.47
2018-03-03T02:36:00.644Z,60.38
2018-03-03T02:38:28.161Z,44.65
2018-03-03T02:40:56.451Z,44.88
2018-03-03T02:43:24.783Z,42.17
2018-03-03T02:45:52.299Z,47.90
2018-03-03T02:48:20.062Z,47.13
2018-03-03T02:50:47.695Z,40.85
2018-03-03T02:53:15.242Z,42.42
2018-03-03T02:55:42.759Z,53.25
2018-03-03T02:58:10.426Z,39.50
2018-03-03T03:00:37.947Z,43.50
2018-03-03T03:03:06.356Z,42.78
2018-03-03T03:05:34.099Z,39.65
2018-03-03T03:08:02.463Z,41.58
2018-03-03T03:10:30.791Z,35.53
2018-03-03T03:12:58.349Z,42.33
2018-03-03T03:15:25.932Z,35.28
2018-03-03T03:17:53.454Z,37.28
2018-03-03T03:20:20.972Z,60.35
2018-03-03T03:22:48.505Z,33.22
2018-03-03T03:25:16.032Z,38.47
2018-03-03T03:27:43.547Z,45.05
2018-03-03T03:30:11.201Z,48.33
2018-03-03T03:32:38.805Z,44.17
2018-03-03T03:35:07.113Z,39.53
2018-03-03T03:37:34.623Z,46.50
2018-03-03T03:40:02.212Z,46.72
2018-03-03T03:42:29.758Z,43.53
2018-03-03T03:44:58.524Z,43.63
2018-03-03T03:47:26.140Z,47.80
2018-03-03T03:49:53.689Z,42.65
2018-03-03T03:52:21.356Z,33.72
2018-03-03T03:54:48.897Z,57.38
2018-03-03T03:57:16.550Z,39.35
2018-03-03T03:59:44.884Z,50.17
2018-03-03T04:02:12.510Z,45.28
2018-03-03T04:04:40.331Z,36.75
2018-03-03T04:07:08.050Z,43.55
2018-03-03T04:09:36.528Z,41.67
2018-03-03T04:12:04.463Z,46.13
2018-03-03T04:14:33.286Z,42.65
2018-03-03T04:17:00.953Z,35.45
2018-03-03T04:19:28.655Z,45.20
2018-03-03T04:21:56.174Z,50.28
2018-03-03T04:24:23.696Z,48.20
2018-03-03T04:26:51.212Z,45.45
2018-03-03T04:29:18.729Z,46.17
2018-03-03T04:31:47.024Z,39.35
2018-03-03T04:34:14.524Z,43.22
2018-03-03T04:36:42.048Z,44.33
2018-03-03T04:39:09.603Z,48.97
2018-03-03T04:41:37.146Z,54.90
2018-03-03T04:44:05.427Z,42.88
2018-03-03T04:46:33.711Z,52.15
2018-03-03T04:49:01.350Z,45.05
2018-03-03T04:51:29.032Z,46.60
2018-03-03T04:53:57.498Z,47.05
2018-03-03T04:56:28.189Z,49.55
2018-03-03T04:58:58.532Z,49.20
2018-03-03T05:01:30.713Z,53.80
2018-03-03T05:17:31.735Z,42.38
2018-03-03T05:20:11.191Z,51.00
2018-03-03T05:36:36.603Z,62.80
2018-03-03T05:52:36.619Z,61.35
2018-03-03T05:55:10.975Z,46.80
2018-03-03T05:57:44.313Z,46.65
2018-03-03T06:00:18.474Z,57.25
2018-03-03T06:02:51.896Z,51.65
2018-03-03T06:18:47.115Z,48.38
2018-03-03T06:21:14.812Z,48.92
2018-03-03T06:23:43.162Z,61.20
2018-03-03T06:26:10.983Z,53.40
2018-03-03T06:28:39.033Z,51.25
2018-03-03T06:31:07.336Z,55.08
2018-03-03T06:33:34.856Z,50.15
2018-03-03T06:36:02.738Z,65.00
2018-03-03T06:38:31.455Z,48.15
2018-03-03T06:40:59.292Z,57.75
2018-03-03T06:43:27.600Z,52.75
2018-03-03T06:45:55.103Z,64.12
2018-03-03T06:48:22.654Z,45.60
2018-03-03T06:50:50.282Z,66.60
2018-03-03T06:53:18.119Z,61.53
2018-03-03T06:55:46.462Z,48.75
2018-03-03T06:58:14.814Z,56.15
2018-03-03T07:00:42.897Z,62.38
2018-03-03T07:06:05.932Z,50.03
2018-03-03T07:08:34.483Z,53.80
2018-03-03T07:11:02.268Z,53.05
2018-03-03T07:13:30.657Z,47.62
2018-03-03T07:15:58.570Z,51.65
2018-03-03T07:18:26.460Z,63.87
2018-03-03T07:20:54.218Z,54.15
2018-03-03T07:23:21.939Z,42.78
2018-03-03T07:25:49.667Z,64.87
2018-03-03T07:28:17.188Z,61.05
2018-03-03T07:30:44.714Z,55.72
2018-03-03T07:33:13.119Z,63.28
2018-03-03T07:35:41.088Z,55.65
2018-03-03T07:38:09.274Z,49.70
2018-03-03T07:40:36.787Z,56.78
2018-03-03T07:43:05.102Z,51.80
2018-03-03T07:45:32.612Z,56.17
2018-03-03T07:48:00.208Z,49.95
2018-03-03T07:50:28.187Z,55.85
2018-03-03T07:52:56.053Z,56.85
2018-03-03T07:55:23.778Z,57.80
2018-03-03T07:57:51.390Z,62.33
2018-03-03T08:00:18.933Z,58.60
2018-03-03T08:02:46.453Z,75.43
2018-03-03T08:05:14.013Z,62.42
2018-03-03T08:07:41.660Z,56.15
2018-03-03T08:10:09.209Z,58.78
2018-03-03T08:12:36.731Z,61.80
2018-03-03T08:15:04.266Z,55.17
2018-03-03T08:17:32.529Z,60.88
2018-03-03T08:20:00.060Z,63.47
2018-03-03T08:22:27.704Z,70.72
2018-03-03T08:24:55.266Z,63.42
2018-03-03T08:27:22.808Z,66.68
2018-03-03T08:29:50.367Z,56.17
2018-03-03T08:32:17.931Z,61.13
2018-03-03T08:34:45.487Z,70.82
2018-03-03T08:37:12.995Z,75.78
2018-03-03T08:39:40.509Z,62.05
2018-03-03T08:42:08.067Z,66.70
2018-03-03T08:44:35.624Z,66.28
2018-03-03T08:47:03.192Z,63.08
2018-03-03T08:49:30.707Z,62.90
2018-03-03T08:51:58.223Z,69.15
2018-03-03T08:54:25.739Z,73.97
2018-03-03T08:56:53.319Z,68.47
2018-03-03T08:59:20.886Z,62.05
2018-03-03T09:01:48.396Z,65.35
2018-03-03T09:04:15.906Z,68.80
2018-03-03T09:06:43.452Z,64.45
2018-03-03T09:09:11.730Z,72.35
2018-03-03T09:11:40.122Z,68.40
2018-03-03T09:14:07.696Z,73.90
2018-03-03T09:16:35.264Z,67.55
2018-03-03T09:19:02.786Z,70.05
2018-03-03T09:21:31.167Z,64.03
2018-03-03T09:23:59.463Z,69.20
2018-03-03T09:26:26.996Z,72.87
2018-03-03T09:28:55.296Z,74.15
2018-03-03T09:31:22.859Z,70.30
2018-03-03T09:33:50.444Z,74.97
2018-03-03T09:36:18.104Z,72.07
2018-03-03T09:38:45.647Z,72.40
2018-03-03T09:41:13.176Z,63.28
2018-03-03T09:43:41.628Z,68.10
2018-03-03T09:46:09.146Z,76.05
2018-03-03T09:48:36.751Z,72.87
2018-03-03T09:51:04.271Z,71.00
2018-03-03T09:53:31.854Z,62.45
2018-03-03T09:55:59.489Z,68.70
2018-03-03T09:58:27.048Z,69.13
2018-03-03T10:00:54.574Z,72.10
2018-03-03T10:03:22.103Z,64.87
2018-03-03T10:05:49.617Z,55.03
2018-03-03T10:08:17.193Z,72.90
2018-03-03T10:10:44.705Z,66.32
2018-03-03T10:13:12.312Z,66.03
2018-03-03T10:15:39.833Z,72.20
2018-03-03T10:18:07.430Z,75.90
2018-03-03T10:20:34.943Z,75.72
2018-03-03T10:23:02.471Z,71.55
2018-03-03T10:25:30.021Z,59.95
2018-03-03T10:27:57.567Z,71.78
2018-03-03T10:30:25.119Z,73.57
2018-03-03T10:32:52.658Z,77.87
2018-03-03T10:35:20.984Z,68.15
2018-03-03T10:37:48.538Z,65.57
2018-03-03T10:40:16.101Z,74.07
2018-03-03T10:42:43.644Z,58.50
2018-03-03T10:45:11.319Z,62.20
2018-03-03T10:47:38.833Z,69.87
2018-03-03T10:50:07.163Z,66.32
2018-03-03T10:52:34.695Z,69.07
2018-03-03T10:55:02.285Z,66.05
2018-03-03T10:57:29.798Z,73.12
2018-03-03T10:59:57.371Z,76.72
2018-03-03T11:02:25.739Z,83.97
2018-03-03T11:04:54.117Z,100.70
2018-03-03T11:07:22.402Z,96.78
2018-03-03T11:09:50.719Z,96.65
2018-03-03T11:12:18.266Z,74.32
2018-03-03T11:14:45.805Z,70.43
2018-03-03T11:17:14.086Z,70.35
2018-03-03T11:19:42.525Z,63.53
2018-03-03T11:22:10.157Z,73.65
2018-03-03T11:24:37.701Z,74.47
2018-03-03T11:27:05.278Z,63.83
2018-03-03T11:29:32.837Z,73.53
2018-03-03T11:32:00.375Z,57.75
2018-03-03T11:34:27.905Z,70.50
2018-03-03T11:36:56.218Z,72.25
2018-03-03T11:39:23.800Z,70.95
2018-03-03T11:41:51.337Z,66.25
2018-03-03T11:44:18.997Z,71.23
2018-03-03T11:46:47.386Z,72.90
2018-03-03T11:49:14.899Z,88.60
2018-03-03T11:51:42.508Z,127.35
2018-03-03T11:54:10.080Z,77.65
2018-03-03T11:56:37.656Z,135.43
2018-03-03T11:59:05.219Z,143.27
2018-03-03T12:01:32.780Z,88.35
2018-03-03T12:04:00.295Z,76.22
2018-03-03T12:06:27.872Z,88.60
2018-03-03T12:08:55.400Z,78.65
2018-03-03T12:11:23.731Z,80.97
2018-03-03T12:13:51.280Z,101.75
2018-03-03T12:16:18.792Z,87.20
2018-03-03T12:18:46.404Z,65.15
2018-03-03T12:21:13.927Z,67.05
2018-03-03T12:23:42.236Z,86.95
2018-03-03T12:26:09.797Z,69.87
2018-03-03T12:28:37.361Z,77.25
2018-03-03T12:31:04.902Z,75.68
2018-03-03T12:33:32.474Z,73.87
2018-03-03T12:36:00.026Z,70.45
2018-03-03T12:38:27.604Z,66.05
2018-03-03T12:40:55.227Z,61.17
2018-03-03T12:43:23.915Z,67.05
2018-03-03T12:45:52.191Z,78.65
2018-03-03T12:48:20.509Z,65.40
2018-03-03T12:50:48.093Z,67.05
2018-03-03T12:53:15.619Z,68.87
2018-03-03T12:55:43.136Z,70.10
2018-03-03T12:58:10.735Z,63.50
2018-03-03T13:00:38.303Z,63.63
2018-03-03T13:03:05.881Z,74.15
2018-03-03T13:05:33.550Z,64.22
2018-03-03T13:08:01.095Z,73.22
2018-03-03T13:10:28.610Z,69.32
2018-03-03T13:12:56.204Z,72.45
2018-03-03T13:15:23.760Z,79.22
2018-03-03T13:17:51.295Z,63.63
2018-03-03T13:20:19.598Z,78.00
2018-03-03T13:22:47.119Z,68.72
2018-03-03T13:25:14.635Z,89.25
2018-03-03T13:27:42.320Z,57.47
2018-03-03T13:30:09.938Z,65.82
2018-03-03T13:32:37.890Z,66.28
2018-03-03T13:35:06.175Z,74.75
2018-03-03T13:37:34.456Z,64.85
2018-03-03T13:40:02.729Z,67.22
2018-03-03T13:42:31.015Z,67.60
2018-03-03T13:44:58.534Z,63.65
2018-03-03T13:47:26.135Z,66.55
2018-03-03T13:49:53.665Z,63.30
2018-03-03T13:52:21.271Z,71.80
2018-03-03T13:54:48.848Z,59.83
2018-03-03T13:57:16.438Z,70.30
2018-03-03T13:59:44.121Z,64.82
2018-03-03T14:02:12.411Z,67.90
2018-03-03T14:04:40.711Z,65.45
2018-03-03T14:07:08.304Z,66.35
2018-03-03T14:09:36.045Z,65.73
2018-03-03T14:12:04.412Z,70.32
2018-03-03T14:14:31.983Z,68.47
2018-03-03T14:17:03.026Z,68.12
2018-03-03T14:19:30.661Z,58.33
2018-03-03T14:21:58.953Z,57.72
2018-03-03T14:24:26.494Z,58.92
2018-03-03T14:26:54.771Z,62.08
2018-03-03T14:29:23.056Z,66.00
2018-03-03T14:31:50.620Z,56.88
2018-03-03T14:34:18.187Z,58.30
2018-03-03T14:36:45.718Z,61.80
2018-03-03T14:39:14.018Z,61.45
2018-03-03T14:41:41.527Z,70.20
2018-03-03T14:44:09.035Z,53.95
2018-03-03T14:46:36.583Z,61.47
2018-03-03T14:49:04.872Z,52.17
2018-03-03T14:51:32.444Z,65.30
2018-03-03T14:54:00.418Z,59.78
2018-03-03T14:56:27.947Z,62.00
2018-03-03T14:58:56.256Z,50.38
2018-03-03T15:01:23.816Z,51.63
2018-03-03T15:03:51.367Z,50.45
2018-03-03T15:06:19.053Z,61.37
2018-03-03T15:08:46.571Z,55.60
2018-03-03T15:11:14.886Z,49.42
2018-03-03T15:13:42.437Z,47.55
2018-03-03T15:16:10.126Z,52.38
2018-03-03T15:18:37.656Z,53.25
2018-03-03T15:21:05.221Z,52.53
2018-03-03T15:23:32.796Z,49.45
2018-03-03T15:26:00.351Z,45.25
2018-03-03T15:28:27.892Z,45.60
2018-03-03T15:30:55.577Z,48.78
2018-03-03T15:33:23.155Z,48.53
2018-03-03T15:35:50.725Z,51.97
2018-03-03T15:38:18.300Z,52.22
2018-03-03T15:40:46.619Z,39.40
2018-03-03T15:43:15.020Z,40.25
2018-03-03T15:45:43.192Z,45.15
2018-03-03T15:48:10.848Z,48.35
2018-03-03T15:50:38.584Z,44.40
2018-03-03T15:53:06.921Z,53.35
2018-03-03T15:55:34.454Z,44.05
2018-03-03T15:58:02.016Z,44.35
2018-03-03T16:00:29.564Z,38.90
2018-03-03T16:02:57.123Z,41.70
2018-03-03T16:05:24.999Z,39.42
2018-03-03T16:07:52.521Z,39.15
2018-03-03T16:10:20.825Z,39.70
2018-03-03T16:12:48.397Z,42.17
2018-03-03T16:15:15.920Z,44.25
2018-03-03T16:17:44.215Z,29.58
2018-03-03T16:20:11.804Z,38.70
2018-03-03T16:22:39.351Z,41.92
2018-03-03T16:25:06.946Z,46.08
2018-03-03T16:27:34.480Z,41.05
2018-03-03T16:30:02.350Z,38.95
2018-03-03T16:32:29.868Z,36.80
2018-03-03T16:34:58.223Z,40.25
2018-03-03T16:37:25.766Z,39.83
2018-03-03T16:39:53.309Z,34.05
2018-03-03T16:42:20.843Z,37.00
2018-03-03T16:44:49.471Z,40.60
2018-03-03T16:47:16.984Z,33.78
2018-03-03T16:49:45.403Z,37.50
2018-03-03T16:52:12.918Z,42.80
2018-03-03T16:54:41.303Z,39.17
2018-03-03T16:57:09.586Z,33.45
2018-03-03T16:59:37.111Z,36.22
2018-03-03T17:02:04.835Z,36.65
2018-03-03T17:04:32.391Z,37.63
2018-03-03T17:07:00.022Z,32.88
2018-03-03T17:09:28.308Z,35.42
2018-03-03T17:11:56.675Z,35.03
2018-03-03T17:14:24.968Z,37.25
2018-03-03T17:16:53.273Z,32.72
2018-03-03T17:19:21.270Z,33.72
2018-03-03T17:21:48.866Z,37.95
2018-03-03T17:24:17.146Z,36.88
2018-03-03T17:26:45.959Z,37.33
2018-03-03T17:29:14.032Z,34.92
2018-03-03T17:31:42.105Z,36.85
2018-03-03T17:34:10.650Z,33.60
2018-03-03T17:36:38.477Z,39.70
2018-03-03T17:39:06.690Z,42.20
2018-03-03T17:41:34.710Z,35.72
2018-03-03T17:44:03.215Z,46.95
2018-03-03T17:46:30.742Z,42.50
2018-03-03T17:48:58.937Z,42.80
2018-03-03T17:51:26.475Z,47.33
2018-03-03T17:53:54.047Z,33.55
2018-03-03T17:56:21.568Z,37.50
2018-03-03T17:58:49.883Z,39.30
2018-03-03T18:01:17.429Z,42.03
2018-03-03T18:03:44.961Z,33.53
2018-03-03T18:06:13.276Z,45.42
2018-03-03T18:08:40.892Z,36.90
2018-03-03T18:11:08.455Z,46.58
2018-03-03T18:13:36.341Z,40.28
2018-03-03T18:16:03.855Z,36.63
2018-03-03T18:18:32.240Z,39.53
2018-03-03T18:20:59.970Z,44.80
2018-03-03T18:23:27.549Z,48.42
2018-03-03T18:25:55.114Z,41.05
2018-03-03T18:28:22.694Z,38.47
2018-03-03T18:30:50.339Z,44.20
2018-03-03T18:33:19.077Z,47.55
2018-03-03T18:35:48.504Z,38.22
2018-03-03T18:38:16.222Z,39.17
2018-03-03T18:40:43.742Z,49.97
2018-03-03T18:43:12.022Z,44.70
2018-03-03T18:45:40.376Z,41.15
2018-03-03T18:48:07.907Z,45.10
2018-03-03T18:50:36.639Z,46.37
2018-03-03T18:53:04.210Z,42.95
2018-03-03T18:55:32.102Z,38.20
2018-03-03T18:57:59.799Z,41.37
2018-03-03T19:00:28.126Z,42.53
2018-03-03T19:02:56.883Z,40.17
2018-03-03T19:05:25.567Z,40.10
2018-03-03T19:07:53.182Z,43.85
2018-03-03T19:10:21.428Z,38.95
2018-03-03T19:12:49.399Z,37.97
2018-03-03T19:15:18.389Z,44.90
2018-03-03T19:17:45.957Z,37.28
2018-03-03T19:20:14.612Z,49.88
2018-03-03T19:22:42.206Z,56.15
2018-03-03T19:25:09.772Z,42.25
2018-03-03T19:27:37.625Z,43.65
2018-03-03T19:30:06.131Z,42.08
2018-03-03T19:32:34.150Z,45.22
2018-03-03T19:35:02.160Z,44.28
2018-03-03T19:37:30.923Z,44.42
2018-03-03T19:39:58.694Z,39.90
2018-03-03T19:42:26.952Z,40.50
2018-03-03T19:44:54.687Z,43.33
2018-03-03T19:47:23.635Z,40.40
2018-03-03T19:49:52.840Z,45.25
2018-03-03T19:52:22.351Z,43.40
2018-03-03T19:54:51.039Z,37.90
2018-03-03T19:57:18.608Z,39.95
2018-03-03T19:59:46.140Z,42.28
2018-03-03T20:02:13.702Z,44.92
2018-03-03T20:04:41.255Z,42.88
2018-03-03T20:07:08.814Z,40.83
2018-03-03T20:09:37.093Z,40.33
2018-03-03T20:12:04.614Z,43.22
2018-03-03T20:14:32.130Z,38.30
2018-03-03T20:17:01.221Z,50.72
2018-03-03T20:19:28.748Z,46.55
2018-03-03T20:21:57.292Z,41.20
2018-03-03T20:24:24.934Z,43.65
2018-03-03T20:26:55.277Z,47.60
2018-03-03T20:29:25.895Z,47.17
2018-03-03T20:31:54.547Z,39.20
2018-03-03T20:34:25.039Z,44.38
2018-03-03T20:36:53.088Z,40.78
2018-03-03T20:39:21.562Z,39.88
2018-03-03T20:41:50.247Z,44.55
2018-03-03T20:44:17.910Z,40.45
2018-03-03T20:46:45.418Z,40.97
2018-03-03T20:49:13.016Z,46.23
2018-03-03T20:51:40.983Z,43.92
2018-03-03T20:54:08.485Z,56.33
2018-03-03T20:56:36.023Z,57.65
2018-03-03T20:59:03.662Z,43.58
2018-03-03T21:01:31.193Z,38.70
2018-03-03T21:03:59.498Z,47.90
2018-03-03T21:06:27.057Z,48.47
2018-03-03T21:08:56.190Z,45.35
2018-03-03T21:11:24.163Z,44.25
2018-03-03T21:13:51.683Z,40.05
2018-03-03T21:16:19.506Z,51.22
2018-03-03T21:18:47.954Z,36.10
2018-03-03T21:21:15.631Z,36.50
2018-03-03T21:23:43.483Z,49.13
2018-03-03T21:26:12.013Z,40.55
2018-03-03T21:28:43.367Z,38.65
2018-03-03T21:31:12.711Z,37.30
2018-03-03T21:33:42.302Z,45.78
2018-03-03T21:36:10.581Z,38.78
2018-03-03T21:38:39.925Z,42.78
2018-03-03T21:41:09.008Z,42.08
2018-03-03T21:43:37.650Z,38.38
2018-03-03T21:46:05.947Z,46.92
2018-03-03T21:48:33.464Z,45.60
2018-03-03T21:51:00.992Z,47.92
2018-03-03T21:53:28.524Z,43.55
2018-03-03T21:55:56.100Z,43.13
2018-03-03T21:58:23.639Z,45.33
2018-03-03T22:00:52.322Z,53.17
2018-03-03T22:03:21.121Z,36.97
2018-03-03T22:05:49.626Z,40.03
2018-03-03T22:08:18.251Z,43.90
2018-03-03T22:10:46.998Z,46.92
2018-03-03T22:13:16.153Z,45.38
2018-03-03T22:15:44.465Z,47.15
2018-03-03T22:18:12.812Z,41.10
2018-03-03T22:20:41.773Z,42.30
2018-03-03T22:23:10.181Z,38.45
2018-03-03T22:25:37.776Z,43.97
2018-03-03T22:28:05.310Z,35.22
2018-03-03T22:30:33.586Z,40.50
2018-03-03T22:33:01.862Z,48.63
2018-03-03T22:35:30.158Z,44.70
2018-03-03T22:37:59.075Z,43.97
2018-03-03T22:40:27.522Z,28.92
2018-03-03T22:42:56.389Z,44.97
2018-03-03T22:45:24.668Z,39.80
2018-03-03T22:47:52.171Z,43.78
2018-03-03T22:50:19.695Z,45.60
2018-03-03T22:52:47.358Z,53.47
2018-03-03T22:55:15.581Z,48.33
2018-03-03T22:57:43.242Z,40.78
2018-03-03T23:00:10.890Z,50.72
2018-03-03T23:02:38.447Z,37.40
2018-03-03T23:05:05.983Z,53.92
2018-03-03T23:07:34.261Z,44.13
2018-03-03T23:10:01.863Z,47.00
2018-03-03T23:12:29.406Z,50.20
2018-03-03T23:14:56.989Z,39.70
2018-03-03T23:17:25.748Z,46.13
2018-03-03T23:19:54.162Z,47.62
2018-03-03T23:22:21.713Z,51.15
2018-03-03T23:24:49.216Z,53.58
2018-03-03T23:27:16.818Z,49.15
2018-03-03T23:29:44.380Z,46.10
2018-03-03T23:32:11.949Z,57.08
2018-03-03T23:34:39.462Z,49.50
2018-03-03T23:37:07.121Z,47.60
2018-03-03T23:39:34.609Z,50.30
2018-03-03T23:42:02.886Z,50.42
2018-03-03T23:44:31.174Z,43.33
2018-03-03T23:46:58.698Z,48.22
2018-03-03T23:49:26.305Z,51.33
2018-03-03T23:51:53.869Z,61.58
2018-03-03T23:54:21.417Z,48.80
2018-03-03T23:56:48.959Z,50.45
2018-03-03T23:59:17.253Z,51.72
